Time;durP1;ratioP1;P1;durP2;ratioP2;P2;SDS_P1;SDS_P2;PMS_P1;PMS_P2;Temp;Humidity;BMP_temperature;BMP_pressure;BME280_temperature;BME280_humidity;BME280_pressure;Samples;Min_cycle;Max_cycle;Signal;HPM_P1;HPM_P2
2021/12/16 00:01:49;;;;;;;12.87;9.73;;;7.60;99.90;;;8.35;100.00;-20011.25;5097986;28;20223;-74
2021/12/16 00:07:19;;;;;;;12.97;10.70;;;7.60;99.90;;;8.29;100.00;-20009.22;5099020;28;20628;-74
2021/12/16 00:09:56;;;;;;;14.40;10.97;;;7.50;99.90;;;8.28;100.00;-20008.69;5099100;28;20227;-73
2021/12/16 00:32:17;;;;;;;13.17;10.53;;;7.60;99.90;;;8.58;100.00;-20019.13;5098193;28;20247;-75
2021/12/16 00:34:46;;;;;;;12.07;9.87;;;7.60;99.90;;;8.47;100.00;-20015.19;5098645;28;20296;-74
2021/12/16 00:37:15;;;;;;;14.20;10.67;;;7.60;99.90;;;8.51;100.00;-20016.56;5097751;28;20792;-74
2021/12/16 00:39:44;;;;;;;12.93;10.60;;;7.60;99.90;;;8.46;100.00;-20014.84;5093910;28;20261;-74
2021/12/16 00:42:26;;;;;;;14.10;11.63;;;7.60;99.90;;;8.48;100.00;-20015.53;5093684;28;20200;-75
2021/12/16 00:45:09;;;;;;;13.83;11.17;;;7.60;99.90;;;8.38;100.00;-20012.28;5093607;28;20279;-75
2021/12/16 00:47:49;;;;;;;15.00;11.27;;;7.60;99.90;;;8.41;100.00;-20013.13;5093932;28;20176;-74
2021/12/16 00:54:07;;;;;;;14.43;11.63;;;7.60;99.90;;;8.37;100.00;-20011.78;5091750;28;20207;-76
2021/12/16 00:56:08;;;;;;;16.10;11.50;;;7.60;99.90;;;8.34;100.00;-20010.91;5073548;28;20207;-77
2021/12/16 00:58:44;;;;;;;15.50;12.03;;;7.60;99.90;;;8.40;100.00;-20012.97;5089867;28;20292;-76
2021/12/16 01:01:28;;;;;;;14.57;11.50;;;7.60;99.90;;;8.44;100.00;-20014.34;5093338;28;20254;-74
2021/12/16 01:04:18;;;;;;;15.13;11.43;;;7.60;99.90;;;8.43;100.00;-20013.81;5072977;28;20246;-76
2021/12/16 01:07:05;;;;;;;14.90;11.10;;;7.60;99.90;;;8.38;100.00;-20012.09;5089493;28;20184;-74
2021/12/16 01:35:06;;;;;;;15.37;11.40;;;7.70;99.90;;;8.45;100.00;-20014.50;5072893;28;20295;-74
2021/12/16 01:38:07;;;;;;;16.00;12.33;;;7.70;99.90;;;8.53;100.00;-20017.41;5072801;28;20192;-75
2021/12/16 01:41:26;;;;;;;16.60;11.90;;;7.70;99.90;;;8.44;100.00;-20014.34;5072409;28;20225;-77
2021/12/16 01:49:40;;;;;;;16.50;12.37;;;7.70;99.90;;;8.45;100.00;-20014.50;5069772;28;20196;-75
2021/12/16 01:52:32;;;;;;;17.50;13.17;;;7.70;99.90;;;8.55;100.00;-20018.09;5072532;28;20193;-74
2021/12/16 01:55:09;;;;;;;17.87;13.47;;;7.70;99.90;;;8.46;100.00;-20015.00;5072399;28;20201;-74
2021/12/16 01:57:42;;;;;;;18.20;13.67;;;7.70;99.90;;;8.52;100.00;-20016.91;5080364;28;20195;-74
2021/12/16 02:00:28;;;;;;;19.57;13.43;;;7.70;99.90;;;8.47;100.00;-20015.19;5072452;28;20701;-75
2021/12/16 02:03:02;;;;;;;16.47;12.73;;;7.70;99.90;;;8.57;100.00;-20018.59;5076526;28;20188;-74
2021/12/16 02:05:53;;;;;;;18.10;13.13;;;7.70;99.90;;;8.56;100.00;-20018.44;5081915;28;20218;-74
2021/12/16 02:08:25;;;;;;;18.00;14.00;;;7.70;99.90;;;8.53;100.00;-20017.22;5097094;28;20622;-73
2021/12/16 02:11:25;;;;;;;20.53;14.90;;;7.70;99.90;;;8.52;100.00;-20017.06;5096207;28;20231;-74
2021/12/16 02:28:11;;;;;;;22.67;17.50;;;7.70;99.90;;;8.51;100.00;-20016.72;5096120;28;20208;-75
2021/12/16 02:34:02;;;;;;;24.10;18.13;;;7.70;99.90;;;8.37;100.00;-20011.78;5095721;28;20232;-75
2021/12/16 02:36:38;;;;;;;22.10;16.47;;;7.60;99.90;;;8.41;100.00;-20013.31;5095735;28;20305;-75
2021/12/16 02:39:13;;;;;;;22.67;16.77;;;7.60;99.90;;;8.49;100.00;-20016.03;5096026;28;20188;-75
2021/12/16 02:41:45;;;;;;;23.53;17.23;;;7.60;99.90;;;8.41;100.00;-20013.13;5095777;28;20568;-75
2021/12/16 02:44:21;;;;;;;24.60;18.20;;;7.60;99.90;;;8.54;100.00;-20017.75;5082514;28;20714;-75
2021/12/16 02:49:48;;;;;;;25.10;16.93;;;7.60;99.90;;;8.47;100.00;-20015.19;5075375;28;20747;-74
2021/12/16 02:52:20;;;;;;;23.50;16.67;;;7.60;99.90;;;8.39;100.00;-20012.44;5075456;28;20295;-76
2021/12/16 02:54:51;;;;;;;22.27;16.03;;;7.60;99.90;;;8.39;100.00;-20012.44;5082978;28;20215;-74
2021/12/16 02:57:21;;;;;;;24.47;16.70;;;7.60;99.90;;;8.39;100.00;-20012.63;5095105;28;20200;-74
2021/12/16 02:59:51;;;;;;;24.33;17.20;;;7.60;99.90;;;8.38;100.00;-20012.09;5095683;28;20200;-73
2021/12/16 03:02:24;;;;;;;22.03;17.33;;;7.60;99.90;;;8.34;100.00;-20010.91;5095540;28;20206;-74
2021/12/16 03:04:55;;;;;;;23.83;17.30;;;7.60;99.90;;;8.35;100.00;-20011.25;5095342;28;20207;-73
2021/12/16 03:07:25;;;;;;;25.93;18.37;;;7.60;99.90;;;8.15;100.00;-20004.25;5095247;28;20235;-74
2021/12/16 03:12:58;;;;;;;23.57;18.00;;;7.40;99.90;;;8.06;100.00;-20001.16;5094611;28;20184;-74
2021/12/16 03:18:29;;;;;;;30.60;21.60;;;7.40;99.90;;;8.03;100.00;-20000.31;5094439;28;20287;-74
2021/12/16 03:21:02;;;;;;;29.57;22.17;;;7.30;99.90;;;8.06;100.00;-20001.34;5094954;28;20287;-74
2021/12/16 03:23:47;;;;;;;29.00;21.20;;;7.40;99.90;;;8.12;100.00;-20003.38;5095095;28;20181;-73
2021/12/16 03:27:07;;;;;;;32.37;23.43;;;7.40;99.90;;;8.12;100.00;-20003.38;5094825;28;20600;-75
2021/12/16 03:29:58;;;;;;;30.17;20.80;;;7.40;99.90;;;8.22;100.00;-20006.81;5094606;28;20230;-74
2021/12/16 03:35:30;;;;;;;26.63;18.80;;;7.50;99.90;;;8.43;100.00;-20014.00;5087862;28;20235;-76
2021/12/16 03:38:02;;;;;;;25.93;18.93;;;7.50;99.90;;;8.36;100.00;-20011.59;5094012;28;20194;-74
2021/12/16 03:40:31;;;;;;;30.80;19.87;;;7.50;99.90;;;8.50;100.00;-20016.22;5094229;28;20208;-74
2021/12/16 03:43:06;;;;;;;26.23;18.90;;;7.60;99.90;;;8.75;100.00;-20024.59;5094277;28;20290;-74
2021/12/16 03:48:37;;;;;;;28.27;18.83;;;7.70;99.90;;;8.53;100.00;-20017.22;5095171;28;20225;-76
2021/12/16 03:51:12;;;;;;;26.90;20.40;;;7.70;99.90;;;8.46;100.00;-20014.84;5094130;28;20761;-74
2021/12/16 03:53:42;;;;;;;27.57;19.73;;;7.70;99.90;;;8.39;100.00;-20012.44;5094365;28;20627;-74
2021/12/16 03:56:12;;;;;;;31.17;21.20;;;7.70;99.90;;;8.49;100.00;-20016.03;5094460;28;20278;-74
2021/12/16 03:58:41;;;;;;;32.20;20.67;;;7.60;99.90;;;8.50;100.00;-20016.22;5094180;28;20294;-74
2021/12/16 04:01:15;;;;;;;29.53;19.90;;;7.70;99.90;;;8.50;100.00;-20016.22;5094277;28;20200;-75
2021/12/16 04:03:44;;;;;;;29.67;19.73;;;7.60;99.90;;;8.64;100.00;-20021.16;5075355;28;20197;-75
2021/12/16 04:06:14;;;;;;;27.10;18.27;;;7.70;99.90;;;8.60;100.00;-20019.63;5085525;28;20199;-74
2021/12/16 04:08:42;;;;;;;25.73;17.50;;;7.70;99.90;;;8.58;100.00;-20018.94;5094364;28;20284;-75
2021/12/16 04:11:19;;;;;;;26.97;18.13;;;7.70;99.90;;;8.68;100.00;-20022.19;5094193;28;20232;-74
2021/12/16 04:13:56;;;;;;;29.37;18.43;;;7.70;99.90;;;8.69;100.00;-20022.53;5093714;28;20655;-74
2021/12/16 04:16:30;;;;;;;27.80;18.97;;;7.70;99.90;;;8.77;100.00;-20025.25;5093636;28;20537;-73
2021/12/16 04:19:02;;;;;;;27.30;18.00;;;7.80;99.90;;;8.69;100.00;-20022.53;5094098;28;20184;-73
2021/12/16 04:21:30;;;;;;;28.57;18.27;;;7.80;99.90;;;8.48;100.00;-20015.69;5094080;28;20284;-74
2021/12/16 04:23:59;;;;;;;26.20;18.67;;;7.70;99.90;;;8.45;100.00;-20014.50;5092730;28;20667;-73
2021/12/16 04:26:31;;;;;;;25.77;18.33;;;7.70;99.90;;;8.44;100.00;-20014.34;5093664;28;20655;-74
2021/12/16 04:29:03;;;;;;;26.83;17.93;;;7.60;99.90;;;8.40;100.00;-20012.78;5093562;28;20215;-75
2021/12/16 04:31:32;;;;;;;29.83;18.87;;;7.60;99.90;;;8.36;100.00;-20011.59;5093820;28;20711;-73
2021/12/16 04:34:01;;;;;;;32.13;19.83;;;7.60;99.90;;;8.56;100.00;-20018.25;5093153;28;20611;-76
2021/12/16 04:36:29;;;;;;;30.00;21.90;;;7.70;99.90;;;8.51;100.00;-20016.56;5082601;28;20220;-75
2021/12/16 04:38:57;;;;;;;27.87;18.33;;;7.60;99.90;;;8.50;100.00;-20016.38;5073497;28;20295;-74
2021/12/16 04:41:32;;;;;;;29.43;19.40;;;7.70;99.90;;;8.41;100.00;-20013.13;5073475;28;20297;-74
2021/12/16 04:44:07;;;;;;;31.43;19.90;;;7.70;99.90;;;8.42;100.00;-20013.47;5072642;28;20628;-74
2021/12/16 04:46:35;;;;;;;32.37;21.30;;;7.60;99.90;;;8.56;100.00;-20018.25;5073110;28;20181;-74
2021/12/16 04:49:07;;;;;;;33.17;21.53;;;7.70;99.90;;;8.57;100.00;-20018.78;5073110;28;20200;-75
2021/12/16 04:51:40;;;;;;;30.03;21.20;;;7.70;99.90;;;8.58;100.00;-20019.13;5073205;28;20272;-75
2021/12/16 04:54:10;;;;;;;28.77;19.97;;;7.70;99.90;;;8.48;100.00;-20015.53;5073023;28;20193;-77
2021/12/16 04:56:40;;;;;;;31.63;20.47;;;7.70;99.90;;;8.31;100.00;-20009.72;5073271;28;20224;-78
2021/12/16 04:59:15;;;;;;;29.47;21.53;;;7.60;99.90;;;8.32;100.00;-20010.06;5085316;28;20234;-75
2021/12/16 05:01:48;;;;;;;35.30;21.77;;;7.60;99.90;;;8.25;100.00;-20007.84;5093761;28;20186;-74
2021/12/16 05:04:16;;;;;;;33.20;22.30;;;7.60;99.90;;;8.29;100.00;-20009.22;5093688;28;20629;-74
2021/12/16 05:06:45;;;;;;;36.37;22.47;;;7.50;99.90;;;8.36;100.00;-20011.59;5093560;28;20203;-75
2021/12/16 05:09:27;;;;;;;30.70;20.53;;;7.50;99.90;;;8.15;100.00;-20004.25;5093411;28;20200;-74
2021/12/16 05:11:56;;;;;;;32.47;20.83;;;7.40;99.90;;;8.18;100.00;-20005.28;5093370;28;20211;-74
2021/12/16 05:14:28;;;;;;;34.90;21.53;;;7.50;99.90;;;8.11;100.00;-20003.06;5093400;28;20298;-75
2021/12/16 05:16:56;;;;;;;32.53;22.17;;;7.40;99.90;;;8.31;100.00;-20009.72;5093304;28;20228;-76
2021/12/16 05:19:24;;;;;;;33.73;22.40;;;7.40;99.90;;;8.28;100.00;-20008.69;5092901;28;20630;-74
2021/12/16 05:21:58;;;;;;;28.90;20.03;;;7.50;99.90;;;8.26;100.00;-20008.00;5093650;28;20204;-75
2021/12/16 05:24:27;;;;;;;30.60;19.13;;;7.50;99.90;;;8.44;100.00;-20014.34;5093970;28;20185;-74
2021/12/16 05:27:00;;;;;;;26.70;18.27;;;7.50;99.90;;;8.63;100.00;-20020.66;5093115;28;20295;-60
2021/12/16 05:29:29;;;;;;;26.70;18.60;;;7.50;99.90;;;8.52;100.00;-20017.06;5092651;28;20622;-61
2021/12/16 05:31:57;;;;;;;29.43;18.87;;;7.60;99.90;;;8.46;100.00;-20014.84;5091984;28;20206;-60
2021/12/16 05:34:26;;;;;;;29.07;19.37;;;7.60;99.90;;;8.44;100.00;-20014.34;5092425;28;20551;-61
2021/12/16 05:36:55;;;;;;;26.53;18.30;;;7.60;99.90;;;8.29;100.00;-20009.03;5092125;28;20219;-60
2021/12/16 05:39:24;;;;;;;28.27;18.77;;;7.50;99.90;;;8.46;100.00;-20014.84;5092707;28;20196;-61
2021/12/16 05:41:52;;;;;;;27.27;18.33;;;7.60;99.90;;;8.50;100.00;-20016.22;5092223;28;20703;-60
2021/12/16 05:44:20;;;;;;;25.30;17.53;;;7.60;99.90;;;8.44;100.00;-20014.16;5092105;28;20922;-61
2021/12/16 05:46:50;;;;;;;27.20;17.90;;;7.60;99.90;;;8.47;100.00;-20015.34;5092518;28;20286;-61
2021/12/16 05:49:18;;;;;;;24.47;16.07;;;7.60;99.90;;;8.40;100.00;-20012.78;5092400;28;20206;-62
2021/12/16 05:51:49;;;;;;;25.83;17.83;;;7.60;99.90;;;8.66;100.00;-20021.69;5092164;28;20294;-62
2021/12/16 05:54:18;;;;;;;25.03;17.20;;;7.60;99.90;;;8.46;100.00;-20015.00;5092012;28;20655;-62
2021/12/16 05:56:47;;;;;;;22.03;16.27;;;7.60;99.90;;;8.42;100.00;-20013.47;5092115;28;20230;-63
2021/12/16 05:59:17;;;;;;;23.57;17.23;;;7.60;99.90;;;8.43;100.00;-20014.00;5091990;28;20606;-62
2021/12/16 06:01:50;;;;;;;27.17;17.37;;;7.60;99.90;;;8.29;100.00;-20009.03;5092478;28;20196;-62
2021/12/16 06:04:20;;;;;;;26.20;17.70;;;7.60;99.90;;;8.47;100.00;-20015.34;5092400;28;20283;-61
2021/12/16 06:06:48;;;;;;;26.47;17.90;;;7.60;99.90;;;8.48;100.00;-20015.53;5092058;28;20192;-61
2021/12/16 06:09:16;;;;;;;26.50;18.83;;;7.60;99.90;;;8.49;100.00;-20015.88;5092240;28;20200;-60
2021/12/16 06:11:45;;;;;;;27.67;19.10;;;7.60;99.90;;;8.54;100.00;-20017.59;5092042;28;20627;-61
2021/12/16 06:14:21;;;;;;;28.13;19.20;;;7.60;99.90;;;8.54;100.00;-20017.75;5091973;28;20291;-61
2021/12/16 06:22:50;;;;;;;27.37;19.13;;;7.60;99.90;;;8.48;100.00;-20015.69;5092223;28;20200;-61
2021/12/16 06:28:09;;;;;;;29.53;20.27;;;7.60;99.90;;;8.77;100.00;-20025.25;5091782;28;20287;-61
2021/12/16 06:30:42;;;;;;;29.07;20.30;;;7.60;99.90;;;8.57;100.00;-20018.59;5092207;28;20562;-61
2021/12/16 06:33:15;;;;;;;28.77;20.33;;;7.60;99.90;;;8.53;100.00;-20017.41;5091436;28;20595;-61
2021/12/16 06:35:44;;;;;;;37.03;24.33;;;7.70;99.90;;;8.58;100.00;-20018.94;5091506;28;20620;-61
2021/12/16 06:38:13;;;;;;;36.63;26.00;;;7.80;99.90;;;8.45;100.00;-20014.69;5091539;28;20226;-61
2021/12/16 06:40:41;;;;;;;33.00;22.30;;;7.70;99.90;;;8.51;100.00;-20016.72;5091683;28;20200;-60
2021/12/16 06:43:11;;;;;;;31.57;20.77;;;7.60;99.90;;;8.56;100.00;-20018.25;5091815;28;20197;-61
2021/12/16 06:45:43;;;;;;;29.30;19.60;;;7.70;99.90;;;8.60;100.00;-20019.63;5091955;28;20223;-62
2021/12/16 06:48:17;;;;;;;27.30;19.13;;;7.70;99.90;;;8.53;100.00;-20017.22;5093544;28;20271;-60
2021/12/16 06:50:50;;;;;;;30.23;20.33;;;7.70;99.90;;;8.51;100.00;-20016.72;5095197;28;20196;-61
2021/12/16 06:53:28;;;;;;;31.90;20.60;;;7.70;99.90;;;8.73;100.00;-20024.06;5095687;28;20220;-61
2021/12/16 06:56:05;;;;;;;32.10;19.43;;;7.70;99.90;;;8.56;100.00;-20018.25;5095139;28;20184;-60
2021/12/16 06:58:39;;;;;;;30.53;19.73;;;7.70;99.90;;;8.68;100.00;-20022.34;5094932;28;20216;-60
2021/12/16 07:01:17;;;;;;;33.40;19.57;;;7.70;99.90;;;8.90;100.00;-20029.88;5094879;28;20180;-64
2021/12/16 07:03:48;;;;;;;31.27;19.57;;;7.80;99.90;;;8.70;100.00;-20022.88;5095407;28;20271;-61
2021/12/16 07:06:21;;;;;;;32.17;21.13;;;7.80;99.90;;;8.71;100.00;-20023.38;5095078;28;20195;-61
2021/12/16 07:08:56;;;;;;;30.73;20.63;;;7.80;99.90;;;8.81;100.00;-20026.81;5095314;28;20237;-60
2021/12/16 07:11:25;;;;;;;29.70;20.43;;;7.90;99.90;;;8.88;100.00;-20029.03;5095189;28;20185;-61
2021/12/16 07:14:00;;;;;;;31.43;21.47;;;7.90;99.90;;;8.72;100.00;-20023.72;5095177;28;20291;-61
2021/12/16 07:16:30;;;;;;;34.27;21.40;;;7.90;99.90;;;8.76;100.00;-20024.94;5094856;28;20584;-61
2021/12/16 07:19:00;;;;;;;32.03;19.97;;;7.80;99.90;;;8.85;100.00;-20028.16;5094690;28;20204;-61
2021/12/16 07:21:28;;;;;;;32.40;20.27;;;7.90;99.90;;;8.79;100.00;-20026.13;5094552;28;20291;-60
2021/12/16 07:23:57;;;;;;;29.57;21.23;;;7.90;99.90;;;8.76;100.00;-20025.09;5094672;28;20231;-61
2021/12/16 07:26:26;;;;;;;32.20;21.63;;;7.90;99.90;;;8.73;100.00;-20024.06;5094857;28;20290;-61
2021/12/16 07:28:54;;;;;;;35.77;21.60;;;7.90;99.90;;;8.83;100.00;-20027.31;5094767;28;20200;-61
2021/12/16 07:31:23;;;;;;;30.37;20.27;;;7.90;99.90;;;8.68;100.00;-20022.34;5094724;28;20200;-60
2021/12/16 07:33:53;;;;;;;33.40;20.97;;;7.90;99.90;;;8.93;100.00;-20030.72;5094378;28;20589;-60
2021/12/16 07:36:24;;;;;;;30.83;21.07;;;7.90;99.90;;;8.92;100.00;-20030.38;5094666;28;20211;-60
2021/12/16 07:38:54;;;;;;;31.77;20.03;;;7.90;99.90;;;9.01;100.00;-20033.47;5094675;28;20240;-60
2021/12/16 07:41:26;;;;;;;29.50;18.77;;;7.90;99.90;;;9.08;100.00;-20035.84;5094704;28;20222;-62
2021/12/16 07:43:58;;;;;;;27.87;17.77;;;8.10;99.90;;;9.10;100.00;-20036.53;5094205;28;20651;-62
2021/12/16 07:46:30;;;;;;;27.37;18.23;;;8.10;99.90;;;9.18;100.00;-20039.44;5094273;28;20552;-62
2021/12/16 07:48:59;;;;;;;29.03;19.27;;;8.10;99.90;;;9.17;100.00;-20039.09;5094522;28;20202;-61
2021/12/16 07:51:29;;;;;;;28.40;18.90;;;8.20;99.90;;;9.19;100.00;-20039.78;5094396;28;20310;-61
2021/12/16 07:53:57;;;;;;;28.67;18.67;;;8.20;99.90;;;9.07;100.00;-20035.69;5094041;28;20200;-61
2021/12/16 07:56:25;;;;;;;28.80;18.73;;;8.20;99.90;;;9.05;100.00;-20035.00;5094235;28;20204;-63
2021/12/16 07:58:54;;;;;;;31.13;18.80;;;8.10;99.90;;;9.09;100.00;-20036.38;5093663;28;20230;-60
2021/12/16 08:01:24;;;;;;;28.10;19.00;;;8.20;99.90;;;8.96;100.00;-20031.75;5093835;28;20649;-60
2021/12/16 08:03:52;;;;;;;31.83;20.33;;;8.20;99.90;;;9.17;100.00;-20039.09;5094146;28;20291;-61
2021/12/16 08:06:26;;;;;;;28.17;18.80;;;8.10;99.90;;;9.16;100.00;-20038.59;5093933;28;20638;-60
2021/12/16 08:08:59;;;;;;;28.67;18.63;;;8.20;99.90;;;8.97;100.00;-20032.09;5093828;28;20276;-60
2021/12/16 08:11:31;;;;;;;28.20;18.90;;;8.10;99.90;;;9.01;100.00;-20033.63;5093621;28;20275;-63
2021/12/16 08:14:03;;;;;;;29.23;18.63;;;8.10;99.90;;;8.99;100.00;-20032.97;5087086;28;20223;-67
2021/12/16 08:16:33;;;;;;;27.40;18.83;;;8.10;99.90;;;9.04;100.00;-20034.66;5090606;28;20196;-66
2021/12/16 08:19:02;;;;;;;31.87;19.30;;;8.20;99.90;;;9.08;100.00;-20036.03;5090638;28;20228;-63
2021/12/16 08:21:30;;;;;;;30.43;19.17;;;8.20;99.90;;;9.27;100.00;-20042.53;5077790;28;20307;-63
2021/12/16 08:24:06;;;;;;;30.90;19.50;;;8.20;99.90;;;9.28;100.00;-20042.88;5070517;28;20225;-62
2021/12/16 08:26:36;;;;;;;31.07;19.60;;;8.30;99.90;;;9.34;100.00;-20044.91;5070245;28;20268;-62
2021/12/16 08:29:06;;;;;;;29.30;19.07;;;8.30;99.90;;;9.27;100.00;-20042.34;5069887;28;20339;-64
2021/12/16 08:31:35;;;;;;;29.47;19.37;;;8.30;99.90;;;9.36;100.00;-20045.59;5090289;28;20200;-63
2021/12/16 08:34:05;;;;;;;32.40;19.80;;;8.20;99.90;;;9.30;100.00;-20043.53;5089984;28;20251;-59
2021/12/16 08:36:34;;;;;;;29.63;18.83;;;8.30;99.90;;;9.21;100.00;-20040.47;5090107;28;20196;-61
2021/12/16 08:39:08;;;;;;;33.13;19.17;;;8.30;99.90;;;9.14;100.00;-20038.06;5090421;28;20223;-60
2021/12/16 08:41:41;;;;;;;31.27;19.03;;;8.20;99.90;;;9.06;100.00;-20035.34;5090451;28;20212;-61
2021/12/16 08:44:09;;;;;;;32.53;21.37;;;8.20;99.90;;;9.24;100.00;-20041.31;5089905;28;20663;-61
2021/12/16 08:46:42;;;;;;;32.27;20.47;;;8.20;99.90;;;9.29;100.00;-20043.19;5089976;28;20196;-61
2021/12/16 08:49:11;;;;;;;29.83;19.07;;;8.30;99.90;;;9.50;100.00;-20050.38;5090010;28;20195;-60
2021/12/16 08:51:43;;;;;;;29.97;20.13;;;8.40;99.90;;;9.39;100.00;-20046.44;5090164;28;20224;-62
2021/12/16 08:54:13;;;;;;;34.00;19.67;;;8.40;99.90;;;9.48;100.00;-20049.53;5090302;28;20208;-62
2021/12/16 08:56:41;;;;;;;32.23;19.63;;;8.40;99.90;;;9.50;100.00;-20050.38;5089913;28;20206;-60
2021/12/16 08:59:10;;;;;;;31.43;19.53;;;8.50;99.90;;;9.57;100.00;-20052.78;5089938;28;20219;-56
2021/12/16 09:01:47;;;;;;;32.00;20.10;;;8.50;99.90;;;9.55;100.00;-20051.91;5089334;28;20322;-62
2021/12/16 09:04:19;;;;;;;31.43;20.97;;;8.50;99.90;;;9.46;100.00;-20049.00;5089782;28;20199;-63
2021/12/16 09:06:48;;;;;;;31.60;19.67;;;8.50;99.90;;;9.42;100.00;-20047.66;5089956;28;20244;-63
2021/12/16 09:09:17;;;;;;;31.63;20.10;;;8.50;99.90;;;9.54;100.00;-20051.56;5089708;28;20242;-64
2021/12/16 09:12:01;;;;;;;33.80;20.07;;;8.50;99.90;;;9.45;100.00;-20048.66;5089158;28;20660;-57
2021/12/16 09:14:30;;;;;;;30.00;18.73;;;8.50;99.90;;;9.43;100.00;-20047.81;5090022;28;20188;-58
2021/12/16 09:16:58;;;;;;;28.47;18.63;;;8.50;99.90;;;9.55;100.00;-20051.91;5091614;28;20204;-63
2021/12/16 09:19:26;;;;;;;33.50;19.77;;;8.50;99.90;;;9.45;100.00;-20048.66;5092222;28;20580;-62
2021/12/16 09:21:54;;;;;;;28.37;18.30;;;8.50;99.90;;;9.57;100.00;-20052.78;5092580;28;20202;-63
2021/12/16 09:24:24;;;;;;;27.80;19.23;;;8.50;99.90;;;9.43;100.00;-20047.81;5092390;28;20214;-65
2021/12/16 09:26:52;;;;;;;28.67;18.57;;;8.50;99.90;;;9.15;100.00;-20038.41;5092457;28;20200;-64
2021/12/16 09:29:20;;;;;;;35.07;19.97;;;8.40;99.90;;;9.20;100.00;-20039.97;5078359;28;20207;-61
2021/12/16 09:31:48;;;;;;;29.80;19.30;;;8.40;99.90;;;9.08;100.00;-20036.03;5072029;28;20247;-62
2021/12/16 09:34:16;;;;;;;33.20;20.13;;;8.40;99.90;;;9.17;100.00;-20039.09;5072584;28;20195;-65
2021/12/16 09:36:46;;;;;;;30.70;18.93;;;8.30;99.90;;;9.21;100.00;-20040.47;5072493;28;20201;-62
2021/12/16 09:39:21;;;;;;;29.80;18.97;;;8.40;99.90;;;9.18;100.00;-20039.44;5074349;28;20595;-63
2021/12/16 09:41:52;;;;;;;33.43;21.20;;;8.40;99.90;;;9.31;100.00;-20043.88;5092767;28;20216;-63
2021/12/16 09:44:22;;;;;;;33.97;20.63;;;8.30;99.90;;;9.06;100.00;-20035.34;5092660;28;20180;-63
2021/12/16 09:46:54;;;;;;;34.50;20.43;;;8.30;99.90;;;9.28;100.00;-20042.69;5092534;28;20250;-62
2021/12/16 09:49:24;;;;;;;34.30;21.10;;;8.30;99.90;;;9.03;100.00;-20034.31;5092067;28;20181;-62
2021/12/16 09:51:57;;;;;;;34.27;20.27;;;8.30;99.90;;;8.96;100.00;-20031.75;5092145;28;20251;-63
2021/12/16 09:54:29;;;;;;;36.27;21.83;;;8.30;99.90;;;8.93;100.00;-20030.91;5092207;28;20631;-63
2021/12/16 09:56:59;;;;;;;37.10;20.47;;;8.20;99.90;;;8.94;100.00;-20031.25;5092532;28;20184;-62
2021/12/16 09:59:32;;;;;;;32.27;19.20;;;8.20;99.90;;;8.88;100.00;-20029.03;5092376;28;20243;-63
2021/12/16 10:02:07;;;;;;;37.10;20.63;;;8.20;99.90;;;8.93;100.00;-20030.91;5092233;28;20191;-63
2021/12/16 10:04:37;;;;;;;29.03;17.67;;;8.20;99.90;;;8.95;100.00;-20031.41;5092424;28;20222;-63
2021/12/16 10:07:13;;;;;;;34.40;19.70;;;8.20;99.90;;;8.98;100.00;-20032.59;5092413;28;20559;-68
2021/12/16 10:09:43;;;;;;;33.73;19.77;;;8.10;99.90;;;9.00;100.00;-20033.28;5092330;28;20275;-69
2021/12/16 10:12:17;;;;;;;35.43;19.33;;;8.10;99.90;;;8.97;100.00;-20032.09;5092335;28;20320;-69
2021/12/16 10:17:35;;;;;;;32.27;18.83;;;8.10;99.90;;;8.96;100.00;-20031.94;5087938;28;20204;-67
2021/12/16 10:20:14;;;;;;;32.57;18.53;;;8.20;99.90;;;9.03;100.00;-20034.16;5092154;28;20204;-69
2021/12/16 10:22:44;;;;;;;33.73;19.77;;;8.20;99.90;;;9.03;100.00;-20034.16;5093624;28;20512;-68
2021/12/16 10:25:28;;;;;;;33.70;19.87;;;8.20;99.90;;;9.20;100.00;-20039.97;5096128;28;20188;-67
2021/12/16 10:28:09;;;;;;;30.33;17.83;;;8.30;99.90;;;9.19;100.00;-20039.78;5096041;28;20188;-67
2021/12/16 10:30:53;;;;;;;31.73;18.57;;;8.30;99.90;;;9.07;100.00;-20035.50;5095953;28;20177;-68
2021/12/16 10:33:28;;;;;;;32.77;19.37;;;8.30;99.90;;;9.01;100.00;-20033.47;5095690;28;20758;-68
2021/12/16 10:36:13;;;;;;;31.60;18.67;;;8.30;99.90;;;9.03;100.00;-20034.16;5095712;28;20733;-68
2021/12/16 10:38:46;;;;;;;32.33;19.07;;;8.30;99.90;;;9.06;100.00;-20035.19;5095844;28;20275;-67
2021/12/16 10:41:20;;;;;;;31.20;18.73;;;8.30;99.90;;;9.16;100.00;-20038.75;5095911;28;20185;-66
2021/12/16 10:43:55;;;;;;;31.87;19.67;;;8.30;99.90;;;9.03;100.00;-20034.31;5095687;28;20184;-68
2021/12/16 10:46:29;;;;;;;33.70;17.83;;;8.30;99.90;;;9.14;100.00;-20037.91;5095808;28;20263;-68
2021/12/16 10:49:04;;;;;;;30.60;17.63;;;8.30;99.90;;;9.07;100.00;-20035.69;5095329;28;20279;-67
2021/12/16 10:51:37;;;;;;;29.37;17.97;;;8.30;99.90;;;9.21;100.00;-20040.47;5095575;28;20183;-68
2021/12/16 10:54:23;;;;;;;31.37;19.07;;;8.30;99.90;;;9.23;100.00;-20041.16;5095391;28;20267;-67
2021/12/16 10:56:58;;;;;;;30.87;17.20;;;8.30;99.90;;;9.35;100.00;-20045.09;5095221;28;20195;-68
2021/12/16 10:59:41;;;;;;;30.90;18.07;;;8.40;99.90;;;9.23;100.00;-20040.97;5095481;28;20237;-69
2021/12/16 11:02:16;;;;;;;34.13;18.60;;;8.40;99.90;;;9.37;100.00;-20045.78;5100481;28;20219;-77
2021/12/16 11:04:50;;;;;;;30.00;18.27;;;8.40;99.90;;;9.18;100.00;-20039.44;5095679;28;20196;-68
2021/12/16 11:07:26;;;;;;;34.13;18.70;;;8.40;99.90;;;9.27;100.00;-20042.53;5072515;28;20658;-67
2021/12/16 11:10:07;;;;;;;33.80;19.53;;;8.40;99.90;;;9.17;100.00;-20039.09;5080560;28;20212;-69
2021/12/16 11:12:42;;;;;;;32.67;18.07;;;8.40;99.90;;;9.23;100.00;-20040.97;5091855;28;20184;-69
2021/12/16 11:15:19;;;;;;;29.80;17.67;;;8.40;99.90;;;9.16;100.00;-20038.75;5092193;28;20252;-68
2021/12/16 11:17:53;;;;;;;30.57;18.07;;;8.40;99.90;;;9.34;100.00;-20044.75;5092477;28;20186;-69
2021/12/16 11:20:31;;;;;;;31.57;18.13;;;8.40;99.90;;;9.20;100.00;-20040.13;5092183;28;20256;-70
2021/12/16 11:23:05;;;;;;;33.60;18.40;;;8.40;99.90;;;9.22;100.00;-20040.81;5092304;28;20188;-69
2021/12/16 11:25:37;;;;;;;33.67;17.60;;;8.40;99.90;;;9.32;100.00;-20044.06;5092178;28;20199;-74
2021/12/16 11:28:19;;;;;;;32.93;18.60;;;8.40;99.90;;;9.27;100.00;-20042.34;5091775;28;20691;-74
2021/12/16 11:30:56;;;;;;;34.53;18.30;;;8.40;99.90;;;9.27;100.00;-20042.34;5091677;28;20196;-69
2021/12/16 11:33:34;;;;;;;32.47;17.97;;;8.40;99.90;;;9.46;100.00;-20048.84;5074767;28;20319;-69
2021/12/16 11:36:13;;;;;;;29.67;17.87;;;8.50;99.90;;;9.54;100.00;-20051.75;5071603;28;20243;-69
2021/12/16 11:38:45;;;;;;;31.23;18.87;;;8.60;99.90;;;9.61;100.00;-20054.13;5071525;28;20294;-68
2021/12/16 11:41:26;;;;;;;34.03;19.43;;;8.70;99.90;;;9.63;100.00;-20054.81;5071554;28;20328;-69
2021/12/16 11:44:06;;;;;;;29.33;17.67;;;8.70;99.90;;;9.70;100.00;-20057.22;5070851;28;20300;-70
2021/12/16 11:46:42;;;;;;;30.83;17.63;;;8.80;99.90;;;9.73;100.00;-20058.06;5071508;28;20276;-70
2021/12/16 11:49:23;;;;;;;32.43;19.43;;;8.80;99.90;;;9.62;100.00;-20054.47;5071252;28;20195;-68
2021/12/16 11:51:59;;;;;;;33.53;19.33;;;8.80;99.90;;;9.55;100.00;-20051.91;5070592;28;20272;-66
2021/12/16 11:54:34;;;;;;;30.27;17.80;;;8.80;99.90;;;9.57;100.00;-20052.59;5071232;28;20185;-66
2021/12/16 11:57:11;;;;;;;33.00;19.13;;;8.80;99.90;;;9.65;100.00;-20055.34;5074327;28;20721;-64
2021/12/16 11:59:45;;;;;;;31.10;18.53;;;8.70;99.90;;;9.57;100.00;-20052.59;5091215;28;20203;-64
2021/12/16 12:02:28;;;;;;;32.37;19.10;;;8.70;99.90;;;9.55;100.00;-20052.09;5091209;28;20199;-69
2021/12/16 12:05:19;;;;;;;31.80;19.00;;;8.70;99.90;;;9.43;100.00;-20048.00;5089401;28;20188;-65
2021/12/16 12:07:51;;;;;;;33.03;19.20;;;8.70;99.90;;;9.37;100.00;-20045.78;5070807;28;20193;-65
2021/12/16 12:10:39;;;;;;;37.70;20.20;;;8.60;99.90;;;9.37;100.00;-20045.94;5070593;28;20187;-68
2021/12/16 12:13:11;;;;;;;32.00;19.40;;;8.60;99.90;;;9.29;100.00;-20043.19;5070507;28;20280;-73